Terminal Aerodrome Forecast
Issued by NWS

Home | Current Version | Previous Version | Text Only | Print | Product List | Glossary On
Versions: 1 2 3 4 5 6 7 8 9 10 11 12
000
FTPA31 PHFO 192328
TAFHJH
TAF
PHJH 192328Z 2000/2024 01012G19KT P6SM VCSH FEW025 SCT050
     FM200400 03007KT P6SM FEW025 SCT050
     FM201600 05007KT P6SM VCSH SCT025 SCT050
     FM202000 02012G20KT P6SM VCSH FEW025 SCT050
      AMD NOT SKED AFT 200400=

USA.gov is the U.S. government's official web portal to all federal, state and local government web resources and services.